sensor_id;sensor_type;location;lat;lon;timestamp;pressure;altitude;pressure_sealevel;temperature;humidity
70027;BME280;57506;50.092;15.804;2024-03-02T00:02:24;98257.53;;;10.04;100.00
70027;BME280;57506;50.092;15.804;2024-03-02T00:04:51;98252.78;;;9.99;100.00
70027;BME280;57506;50.092;15.804;2024-03-02T00:07:17;98266.81;;;10.08;100.00
70027;BME280;57506;50.092;15.804;2024-03-02T00:09:43;98268.66;;;10.07;100.00
70027;BME280;57506;50.092;15.804;2024-03-02T00:12:11;98248.81;;;10.02;100.00
70027;BME280;57506;50.092;15.804;2024-03-02T00:14:41;98230.88;;;9.89;100.00
70027;BME280;57506;50.092;15.804;2024-03-02T00:17:17;98273.41;;;10.12;100.00
70027;BME280;57506;50.092;15.804;2024-03-02T00:19:46;98268.66;;;10.07;100.00
70027;BME280;57506;50.092;15.804;2024-03-02T00:22:12;98207.72;;;9.75;100.00
70027;BME280;57506;50.092;15.804;2024-03-02T00:24:38;98268.66;;;10.07;100.00
70027;BME280;57506;50.092;15.804;2024-03-02T00:27:05;98263.94;;;10.03;100.00
70027;BME280;57506;50.092;15.804;2024-03-02T00:29:34;98263.47;;;10.12;100.00
70027;BME280;57506;50.092;15.804;2024-03-02T00:32:01;98269.28;;;10.09;100.00
70027;BME280;57506;50.092;15.804;2024-03-02T00:34:26;98260.16;;;10.10;100.00
70027;BME280;57506;50.092;15.804;2024-03-02T00:36:52;98249.25;;;10.05;100.00
70027;BME280;57506;50.092;15.804;2024-03-02T00:39:18;98271.97;;;10.09;100.00
70027;BME280;57506;50.092;15.804;2024-03-02T00:41:43;98270.78;;;10.05;100.00
70027;BME280;57506;50.092;15.804;2024-03-02T00:44:12;98270.09;;;10.16;100.00
70027;BME280;57506;50.092;15.804;2024-03-02T00:46:39;98275.69;;;10.15;100.00
70027;BME280;57506;50.092;15.804;2024-03-02T00:49:23;98277.38;;;10.23;100.00
70027;BME280;57506;50.092;15.804;2024-03-02T00:51:51;98274.44;;;10.24;100.00
70027;BME280;57506;50.092;15.804;2024-03-02T00:54:25;98273.19;;;10.27;100.00
70027;BME280;57506;50.092;15.804;2024-03-02T00:56:54;98210.59;;;9.87;100.00
70027;BME280;57506;50.092;15.804;2024-03-02T00:59:23;98278.97;;;10.30;100.00
70027;BME280;57506;50.092;15.804;2024-03-02T01:01:49;98284.75;;;10.34;100.00
70027;BME280;57506;50.092;15.804;2024-03-02T01:04:15;98271.69;;;10.37;100.00
70027;BME280;57506;50.092;15.804;2024-03-02T01:06:42;98276.69;;;10.34;100.00
70027;BME280;57506;50.092;15.804;2024-03-02T01:09:08;98275.44;;;10.36;100.00
70027;BME280;57506;50.092;15.804;2024-03-02T01:11:34;98268.38;;;10.35;100.00
70027;BME280;57506;50.092;15.804;2024-03-02T01:13:59;98276.19;;;10.43;100.00
70027;BME280;57506;50.092;15.804;2024-03-02T01:16:25;98265.91;;;10.34;100.00
70027;BME280;57506;50.092;15.804;2024-03-02T01:18:51;98273.56;;;10.37;100.00
70027;BME280;57506;50.092;15.804;2024-03-02T01:21:17;98273.28;;;10.45;100.00
70027;BME280;57506;50.092;15.804;2024-03-02T01:23:42;98278.69;;;10.45;100.00
70027;BME280;57506;50.092;15.804;2024-03-02T01:26:08;98268.34;;;10.42;100.00
70027;BME280;57506;50.092;15.804;2024-03-02T01:28:34;98276.19;;;10.43;100.00
70027;BME280;57506;50.092;15.804;2024-03-02T01:31:00;98236.97;;;10.16;100.00
70027;BME280;57506;50.092;15.804;2024-03-02T01:33:27;98274.19;;;10.39;100.00
70027;BME280;57506;50.092;15.804;2024-03-02T01:35:52;98263.00;;;10.35;100.00
70027;BME280;57506;50.092;15.804;2024-03-02T01:38:18;98276.25;;;10.37;100.00
70027;BME280;57506;50.092;15.804;2024-03-02T01:40:44;98255.16;;;10.27;100.00
70027;BME280;57506;50.092;15.804;2024-03-02T01:43:10;98261.97;;;10.36;100.00
70027;BME280;57506;50.092;15.804;2024-03-02T01:45:36;98253.34;;;10.21;100.00
70027;BME280;57506;50.092;15.804;2024-03-02T01:48:04;98239.03;;;10.14;100.00
70027;BME280;57506;50.092;15.804;2024-03-02T01:50:34;98273.38;;;10.25;100.00
70027;BME280;57506;50.092;15.804;2024-03-02T01:53:00;98269.88;;;10.25;100.00
70027;BME280;57506;50.092;15.804;2024-03-02T01:55:28;98262.81;;;10.24;100.00
70027;BME280;57506;50.092;15.804;2024-03-02T01:57:55;98245.66;;;10.11;100.00
70027;BME280;57506;50.092;15.804;2024-03-02T02:00:21;98248.53;;;10.23;100.00
70027;BME280;57506;50.092;15.804;2024-03-02T02:02:50;98241.16;;;10.05;100.00
70027;BME280;57506;50.092;15.804;2024-03-02T02:05:17;98261.41;;;10.14;100.00
70027;BME280;57506;50.092;15.804;2024-03-02T02:07:43;98267.63;;;10.22;100.00
70027;BME280;57506;50.092;15.804;2024-03-02T02:10:09;98255.19;;;10.14;100.00
70027;BME280;57506;50.092;15.804;2024-03-02T02:12:36;98225.44;;;9.96;100.00
70027;BME280;57506;50.092;15.804;2024-03-02T02:15:02;98249.81;;;10.07;100.00
70027;BME280;57506;50.092;15.804;2024-03-02T02:17:28;98230.25;;;9.87;100.00
70027;BME280;57506;50.092;15.804;2024-03-02T02:19:53;98248.78;;;10.08;100.00
70027;BME280;57506;50.092;15.804;2024-03-02T02:22:19;98260.16;;;10.10;100.00
70027;BME280;57506;50.092;15.804;2024-03-02T02:24:44;98233.09;;;9.99;100.00
70027;BME280;57506;50.092;15.804;2024-03-02T02:27:10;98225.03;;;9.92;100.00
70027;BME280;57506;50.092;15.804;2024-03-02T02:29:38;98218.47;;;9.88;100.00
70027;BME280;57506;50.092;15.804;2024-03-02T02:32:03;98232.88;;;10.00;100.00
70027;BME280;57506;50.092;15.804;2024-03-02T02:34:29;98246.97;;;10.02;100.00
70027;BME280;57506;50.092;15.804;2024-03-02T02:36:54;98247.38;;;9.99;100.00
70027;BME280;57506;50.092;15.804;2024-03-02T02:39:21;98239.13;;;9.94;100.00
70027;BME280;57506;50.092;15.804;2024-03-02T02:41:48;98251.53;;;10.02;100.00
70027;BME280;57506;50.092;15.804;2024-03-02T02:44:13;98232.53;;;9.90;100.00
70027;BME280;57506;50.092;15.804;2024-03-02T02:46:39;98242.63;;;9.95;100.00
70027;BME280;57506;50.092;15.804;2024-03-02T02:49:05;98218.47;;;9.88;100.00
70027;BME280;57506;50.092;15.804;2024-03-02T02:51:31;98228.75;;;9.98;100.00
70027;BME280;57506;50.092;15.804;2024-03-02T02:53:56;98251.94;;;10.05;100.00
70027;BME280;57506;50.092;15.804;2024-03-02T02:56:22;98230.00;;;9.95;100.00
70027;BME280;57506;50.092;15.804;2024-03-02T02:58:47;98238.47;;;9.99;100.00
70027;BME280;57506;50.092;15.804;2024-03-02T03:01:14;98234.16;;;9.91;100.00
70027;BME280;57506;50.092;15.804;2024-03-02T03:03:40;98244.91;;;9.98;100.00
70027;BME280;57506;50.092;15.804;2024-03-02T03:06:06;98239.53;;;9.91;100.00
70027;BME280;57506;50.092;15.804;2024-03-02T03:08:31;98244.91;;;9.91;100.00
70027;BME280;57506;50.092;15.804;2024-03-02T03:10:57;98231.28;;;9.86;100.00
70027;BME280;57506;50.092;15.804;2024-03-02T03:13:22;98212.28;;;9.74;100.00
70027;BME280;57506;50.092;15.804;2024-03-02T03:15:48;98241.44;;;9.84;100.00
70027;BME280;57506;50.092;15.804;2024-03-02T03:18:13;98235.66;;;9.80;100.00
70027;BME280;57506;50.092;15.804;2024-03-02T03:20:39;98222.63;;;9.77;100.00
70027;BME280;57506;50.092;15.804;2024-03-02T03:23:04;98249.47;;;9.91;100.00
70027;BME280;57506;50.092;15.804;2024-03-02T03:25:30;98224.94;;;9.74;100.00
70027;BME280;57506;50.092;15.804;2024-03-02T03:27:56;98234.00;;;9.79;100.00
70027;BME280;57506;50.092;15.804;2024-03-02T03:30:22;98223.88;;;9.75;100.00
70027;BME280;57506;50.092;15.804;2024-03-02T03:32:47;98230.09;;;9.69;100.00
70027;BME280;57506;50.092;15.804;2024-03-02T03:35:13;98245.38;;;9.88;100.00
70027;BME280;57506;50.092;15.804;2024-03-02T03:37:40;98249.72;;;9.89;100.00
70027;BME280;57506;50.092;15.804;2024-03-02T03:40:06;98241.44;;;9.84;100.00
70027;BME280;57506;50.092;15.804;2024-03-02T03:42:40;98246.81;;;9.84;100.00
70027;BME280;57506;50.092;15.804;2024-03-02T03:45:06;98258.63;;;9.90;100.00
70027;BME280;57506;50.092;15.804;2024-03-02T03:47:32;98255.31;;;9.88;100.00
70027;BME280;57506;50.092;15.804;2024-03-02T03:49:58;98249.50;;;9.84;100.00
70027;BME280;57506;50.092;15.804;2024-03-02T03:52:24;98259.81;;;9.94;100.00
70027;BME280;57506;50.092;15.804;2024-03-02T03:54:50;98248.84;;;9.95;100.00
70027;BME280;57506;50.092;15.804;2024-03-02T03:57:16;98255.47;;;9.99;100.00
70027;BME280;57506;50.092;15.804;2024-03-02T03:59:42;98252.56;;;9.94;100.00
70027;BME280;57506;50.092;15.804;2024-03-02T04:02:08;98239.97;;;9.88;100.00
70027;BME280;57506;50.092;15.804;2024-03-02T04:04:34;98241.63;;;9.89;100.00
70027;BME280;57506;50.092;15.804;2024-03-02T04:06:59;98221.16;;;9.75;100.00
70027;BME280;57506;50.092;15.804;2024-03-02T04:09:25;98254.66;;;9.92;100.00
70027;BME280;57506;50.092;15.804;2024-03-02T04:11:51;98256.91;;;9.95;100.00
70027;BME280;57506;50.092;15.804;2024-03-02T04:14:16;98235.44;;;9.82;100.00
70027;BME280;57506;50.092;15.804;2024-03-02T04:16:42;98254.28;;;9.89;100.00
70027;BME280;57506;50.092;15.804;2024-03-02T04:19:08;98259.44;;;9.90;100.00
70027;BME280;57506;50.092;15.804;2024-03-02T04:21:33;98257.16;;;9.87;100.00
70027;BME280;57506;50.092;15.804;2024-03-02T04:23:59;98264.22;;;9.88;100.00
70027;BME280;57506;50.092;15.804;2024-03-02T04:26:25;98265.63;;;9.91;100.00
70027;BME280;57506;50.092;15.804;2024-03-02T04:28:51;98262.34;;;9.82;100.00
70027;BME280;57506;50.092;15.804;2024-03-02T04:31:17;98257.84;;;9.69;100.00
70027;BME280;57506;50.092;15.804;2024-03-02T04:33:43;98265.66;;;9.77;100.00
70027;BME280;57506;50.092;15.804;2024-03-02T04:36:08;98278.75;;;9.74;100.00
70027;BME280;57506;50.092;15.804;2024-03-02T04:38:38;98278.50;;;9.75;100.00
70027;BME280;57506;50.092;15.804;2024-03-02T04:41:07;98270.88;;;9.59;100.00
70027;BME280;57506;50.092;15.804;2024-03-02T04:43:33;98267.38;;;9.52;100.00
70027;BME280;57506;50.092;15.804;2024-03-02T04:45:59;98280.63;;;9.54;100.00
70027;BME280;57506;50.092;15.804;2024-03-02T04:48:25;98299.63;;;9.59;100.00
70027;BME280;57506;50.092;15.804;2024-03-02T04:50:50;98286.63;;;9.49;100.00
70027;BME280;57506;50.092;15.804;2024-03-02T04:53:16;98277.97;;;9.40;100.00
70027;BME280;57506;50.092;15.804;2024-03-02T04:55:41;98290.97;;;9.43;100.00
70027;BME280;57506;50.092;15.804;2024-03-02T04:58:07;98277.56;;;9.37;100.00
70027;BME280;57506;50.092;15.804;2024-03-02T05:00:34;98285.63;;;9.37;100.00
70027;BME280;57506;50.092;15.804;2024-03-02T05:03:00;98300.50;;;9.46;100.00
70027;BME280;57506;50.092;15.804;2024-03-02T05:05:25;98297.81;;;9.39;100.00
70027;BME280;57506;50.092;15.804;2024-03-02T05:07:52;98295.09;;;9.46;100.00
70027;BME280;57506;50.092;15.804;2024-03-02T05:10:17;98291.00;;;9.37;100.00
70027;BME280;57506;50.092;15.804;2024-03-02T05:12:43;98296.16;;;9.38;100.00
70027;BME280;57506;50.092;15.804;2024-03-02T05:15:15;98283.97;;;9.36;100.00
70027;BME280;57506;50.092;15.804;2024-03-02T05:17:41;98292.03;;;9.36;100.00
70027;BME280;57506;50.092;15.804;2024-03-02T05:20:10;98287.06;;;9.26;100.00
70027;BME280;57506;50.092;15.804;2024-03-02T05:22:37;98296.78;;;9.27;100.00
70027;BME280;57506;50.092;15.804;2024-03-02T05:25:03;98298.88;;;9.25;100.00
70027;BME280;57506;50.092;15.804;2024-03-02T05:27:29;98303.19;;;9.26;100.00
70027;BME280;57506;50.092;15.804;2024-03-02T05:29:55;98306.28;;;9.30;100.00
70027;BME280;57506;50.092;15.804;2024-03-02T05:32:20;98297.63;;;9.21;100.00
70027;BME280;57506;50.092;15.804;2024-03-02T05:34:46;98308.16;;;9.23;100.00
70027;BME280;57506;50.092;15.804;2024-03-02T05:37:12;98305.28;;;9.24;100.00
70027;BME280;57506;50.092;15.804;2024-03-02T05:39:37;98309.59;;;9.32;100.00
70027;BME280;57506;50.092;15.804;2024-03-02T05:42:03;98321.00;;;9.40;100.00
70027;BME280;57506;50.092;15.804;2024-03-02T05:44:29;98321.38;;;9.44;100.00
70027;BME280;57506;50.092;15.804;2024-03-02T05:46:56;98321.59;;;9.42;100.00
70027;BME280;57506;50.092;15.804;2024-03-02T05:49:21;98317.69;;;9.38;100.00
70027;BME280;57506;50.092;15.804;2024-03-02T05:51:47;98302.16;;;9.27;100.00
70027;BME280;57506;50.092;15.804;2024-03-02T05:54:13;98301.31;;;9.27;100.00
70027;BME280;57506;50.092;15.804;2024-03-02T05:56:39;98314.16;;;9.31;100.00
70027;BME280;57506;50.092;15.804;2024-03-02T05:59:04;98311.25;;;9.26;100.00
70027;BME280;57506;50.092;15.804;2024-03-02T06:01:43;98335.88;;;9.36;100.00
70027;BME280;57506;50.092;15.804;2024-03-02T06:04:10;98334.84;;;9.31;100.00
70027;BME280;57506;50.092;15.804;2024-03-02T06:06:38;98323.66;;;9.27;100.00
70027;BME280;57506;50.092;15.804;2024-03-02T06:09:05;98332.16;;;9.24;100.00
70027;BME280;57506;50.092;15.804;2024-03-02T06:11:36;98312.28;;;9.12;100.00
70027;BME280;57506;50.092;15.804;2024-03-02T06:14:02;98322.22;;;9.18;100.00
70027;BME280;57506;50.092;15.804;2024-03-02T06:16:28;98330.28;;;9.18;100.00
70027;BME280;57506;50.092;15.804;2024-03-02T06:18:55;98346.41;;;9.31;100.00
70027;BME280;57506;50.092;15.804;2024-03-02T06:21:23;98331.53;;;9.22;100.00
70027;BME280;57506;50.092;15.804;2024-03-02T06:23:49;98348.91;;;9.33;100.00
70027;BME280;57506;50.092;15.804;2024-03-02T06:26:15;98343.94;;;9.36;100.00
70027;BME280;57506;50.092;15.804;2024-03-02T06:28:40;98332.78;;;9.33;100.00
70027;BME280;57506;50.092;15.804;2024-03-02T06:31:06;98345.38;;;9.45;100.00
70027;BME280;57506;50.092;15.804;2024-03-02T06:33:32;98351.19;;;9.49;100.00
70027;BME280;57506;50.092;15.804;2024-03-02T06:35:57;98362.78;;;9.56;100.00
70027;BME280;57506;50.092;15.804;2024-03-02T06:38:23;98370.63;;;9.58;100.00
70027;BME280;57506;50.092;15.804;2024-03-02T06:40:48;98361.72;;;9.51;100.00
70027;BME280;57506;50.092;15.804;2024-03-02T06:43:14;98358.41;;;9.48;100.00
70027;BME280;57506;50.092;15.804;2024-03-02T06:45:40;98362.16;;;9.54;100.00
70027;BME280;57506;50.092;15.804;2024-03-02T06:48:05;98352.22;;;9.48;100.00
70027;BME280;57506;50.092;15.804;2024-03-02T06:50:31;98349.31;;;9.50;100.00
70027;BME280;57506;50.092;15.804;2024-03-02T06:52:57;98344.97;;;9.48;100.00
70027;BME280;57506;50.092;15.804;2024-03-02T06:55:23;98342.28;;;9.48;100.00
70027;BME280;57506;50.092;15.804;2024-03-02T06:57:50;98349.72;;;9.66;100.00
70027;BME280;57506;50.092;15.804;2024-03-02T07:00:16;98351.34;;;9.80;100.00
70027;BME280;57506;50.092;15.804;2024-03-02T07:02:44;98338.94;;;9.86;100.00
70027;BME280;57506;50.092;15.804;2024-03-02T07:05:10;98342.22;;;9.95;100.00
70027;BME280;57506;50.092;15.804;2024-03-02T07:07:36;98338.06;;;10.05;100.00
70027;BME280;57506;50.092;15.804;2024-03-02T07:10:05;98335.53;;;10.10;100.00
70027;BME280;57506;50.092;15.804;2024-03-02T07:12:33;98356.03;;;10.25;100.00
70027;BME280;57506;50.092;15.804;2024-03-02T07:14:58;98354.63;;;10.22;100.00
70027;BME280;57506;50.092;15.804;2024-03-02T07:17:30;98355.81;;;10.33;100.00
70027;BME280;57506;50.092;15.804;2024-03-02T07:19:57;98355.19;;;10.37;100.00
70027;BME280;57506;50.092;15.804;2024-03-02T07:22:22;98349.75;;;10.44;100.00
70027;BME280;57506;50.092;15.804;2024-03-02T07:24:48;98349.13;;;10.48;100.00
70027;BME280;57506;50.092;15.804;2024-03-02T07:27:14;98362.44;;;10.37;100.00
70027;BME280;57506;50.092;15.804;2024-03-02T07:29:40;98374.81;;;10.51;100.00
70027;BME280;57506;50.092;15.804;2024-03-02T07:32:07;98386.16;;;10.66;100.00
70027;BME280;57506;50.092;15.804;2024-03-02T07:34:33;98381.38;;;10.68;100.00
70027;BME280;57506;50.092;15.804;2024-03-02T07:36:59;98388.38;;;10.76;100.00
70027;BME280;57506;50.092;15.804;2024-03-02T07:39:25;98373.53;;;10.60;100.00
70027;BME280;57506;50.092;15.804;2024-03-02T07:41:50;98382.63;;;10.66;100.00
70027;BME280;57506;50.092;15.804;2024-03-02T07:44:16;98405.41;;;10.70;100.00
70027;BME280;57506;50.092;15.804;2024-03-02T07:46:45;98399.81;;;10.71;100.00
70027;BME280;57506;50.092;15.804;2024-03-02T07:49:20;98414.13;;;10.65;100.00
70027;BME280;57506;50.092;15.804;2024-03-02T07:51:46;98416.41;;;10.68;100.00
70027;BME280;57506;50.092;15.804;2024-03-02T07:54:12;98415.78;;;10.66;100.00
70027;BME280;57506;50.092;15.804;2024-03-02T07:56:37;98409.16;;;10.69;100.00
70027;BME280;57506;50.092;15.804;2024-03-02T07:59:03;98410.31;;;10.86;100.00
70027;BME280;57506;50.092;15.804;2024-03-02T08:01:33;98420.41;;;10.97;100.00
70027;BME280;57506;50.092;15.804;2024-03-02T08:04:00;98425.72;;;11.10;100.00
70027;BME280;57506;50.092;15.804;2024-03-02T08:06:26;98421.56;;;11.14;100.00
70027;BME280;57506;50.092;15.804;2024-03-02T08:08:56;98425.41;;;11.32;100.00
70027;BME280;57506;50.092;15.804;2024-03-02T08:11:22;98432.41;;;11.39;100.00
70027;BME280;57506;50.092;15.804;2024-03-02T08:13:48;98430.50;;;11.46;100.00
70027;BME280;57506;50.092;15.804;2024-03-02T08:16:17;98422.59;;;11.51;100.00
70027;BME280;57506;50.092;15.804;2024-03-02T08:18:49;98424.81;;;11.54;100.00
70027;BME280;57506;50.092;15.804;2024-03-02T08:21:16;98426.25;;;11.57;100.00
70027;BME280;57506;50.092;15.804;2024-03-02T08:23:42;98426.84;;;11.66;100.00
70027;BME280;57506;50.092;15.804;2024-03-02T08:26:09;98426.88;;;11.59;100.00
70027;BME280;57506;50.092;15.804;2024-03-02T08:28:35;98443.38;;;11.76;100.00
70027;BME280;57506;50.092;15.804;2024-03-02T08:31:06;98436.06;;;11.83;100.00
70027;BME280;57506;50.092;15.804;2024-03-02T08:33:32;98440.66;;;11.82;100.00
70027;BME280;57506;50.092;15.804;2024-03-02T08:35:57;98430.47;;;11.84;100.00
70027;BME280;57506;50.092;15.804;2024-03-02T08:38:23;98418.00;;;11.83;100.00
70027;BME280;57506;50.092;15.804;2024-03-02T08:40:49;98437.19;;;12.00;100.00
70027;BME280;57506;50.092;15.804;2024-03-02T08:43:15;98426.06;;;12.08;100.00
70027;BME280;57506;50.092;15.804;2024-03-02T08:45:41;98428.41;;;12.23;100.00
70027;BME280;57506;50.092;15.804;2024-03-02T08:48:10;98425.97;;;12.40;96.86
70027;BME280;57506;50.092;15.804;2024-03-02T08:50:36;98418.63;;;12.47;96.79
70027;BME280;57506;50.092;15.804;2024-03-02T08:53:03;98418.97;;;12.69;95.16
70027;BME280;57506;50.092;15.804;2024-03-02T08:55:29;98427.41;;;12.79;94.93
70027;BME280;57506;50.092;15.804;2024-03-02T08:57:55;98420.63;;;12.88;91.94
70027;BME280;57506;50.092;15.804;2024-03-02T09:00:21;98430.84;;;12.86;87.96
70027;BME280;57506;50.092;15.804;2024-03-02T09:02:46;98424.25;;;12.82;87.78
70027;BME280;57506;50.092;15.804;2024-03-02T09:05:12;98405.78;;;12.79;90.06
70027;BME280;57506;50.092;15.804;2024-03-02T09:07:38;98413.72;;;12.92;89.49
70027;BME280;57506;50.092;15.804;2024-03-02T09:10:07;98366.44;;;12.65;87.74
70027;BME280;57506;50.092;15.804;2024-03-02T09:12:33;98416.47;;;13.04;88.47
70027;BME280;57506;50.092;15.804;2024-03-02T09:15:03;98401.88;;;13.05;87.19
70027;BME280;57506;50.092;15.804;2024-03-02T09:17:29;98411.41;;;13.25;87.52
70027;BME280;57506;50.092;15.804;2024-03-02T09:19:55;98411.78;;;13.29;86.99
70027;BME280;57506;50.092;15.804;2024-03-02T09:22:21;98412.63;;;13.29;87.38
70027;BME280;57506;50.092;15.804;2024-03-02T09:24:46;98412.00;;;13.27;86.37
70027;BME280;57506;50.092;15.804;2024-03-02T09:27:12;98406.47;;;13.34;86.64
70027;BME280;57506;50.092;15.804;2024-03-02T09:29:38;98415.28;;;13.59;86.00
70027;BME280;57506;50.092;15.804;2024-03-02T09:32:05;98417.38;;;13.57;86.58
70027;BME280;57506;50.092;15.804;2024-03-02T09:34:31;98411.16;;;13.69;86.98
70027;BME280;57506;50.092;15.804;2024-03-02T09:36:57;98414.47;;;13.71;83.86
70027;BME280;57506;50.092;15.804;2024-03-02T09:39:22;98423.44;;;13.83;85.01
70027;BME280;57506;50.092;15.804;2024-03-02T09:41:48;98416.72;;;13.85;81.69
70027;BME280;57506;50.092;15.804;2024-03-02T09:44:14;98402.97;;;14.10;84.05
70027;BME280;57506;50.092;15.804;2024-03-02T09:46:40;98405.94;;;14.44;81.94
70027;BME280;57506;50.092;15.804;2024-03-02T09:49:06;98413.34;;;14.60;80.20
70027;BME280;57506;50.092;15.804;2024-03-02T09:51:31;98402.13;;;14.56;79.94
70027;BME280;57506;50.092;15.804;2024-03-02T09:53:57;98393.75;;;14.46;81.40
70027;BME280;57506;50.092;15.804;2024-03-02T09:56:26;98405.56;;;14.28;76.24
70027;BME280;57506;50.092;15.804;2024-03-02T09:58:51;98412.13;;;14.32;79.94
70027;BME280;57506;50.092;15.804;2024-03-02T10:01:17;98410.72;;;14.30;78.96
70027;BME280;57506;50.092;15.804;2024-03-02T10:03:44;98422.66;;;14.41;79.09
70027;BME280;57506;50.092;15.804;2024-03-02T10:06:23;98409.47;;;14.44;78.44
70027;BME280;57506;50.092;15.804;2024-03-02T10:08:49;98396.00;;;14.38;79.62
70027;BME280;57506;50.092;15.804;2024-03-02T10:11:29;98400.72;;;14.30;80.04
70027;BME280;57506;50.092;15.804;2024-03-02T10:14:10;98383.16;;;13.98;78.68
70027;BME280;57506;50.092;15.804;2024-03-02T10:16:41;98396.72;;;14.21;78.44
70027;BME280;57506;50.092;15.804;2024-03-02T10:21:40;98389.53;;;14.15;81.71
70027;BME280;57506;50.092;15.804;2024-03-02T10:24:07;98406.72;;;14.32;80.90
70027;BME280;57506;50.092;15.804;2024-03-02T10:26:33;98396.94;;;14.31;81.40
70027;BME280;57506;50.092;15.804;2024-03-02T10:28:59;98392.69;;;14.35;77.98
70027;BME280;57506;50.092;15.804;2024-03-02T10:31:25;98385.31;;;14.43;77.86
70027;BME280;57506;50.092;15.804;2024-03-02T10:33:57;98393.28;;;14.49;76.53
70027;BME280;57506;50.092;15.804;2024-03-02T10:36:23;98400.13;;;14.52;79.83
70027;BME280;57506;50.092;15.804;2024-03-02T10:38:51;98372.34;;;14.45;78.68
70027;BME280;57506;50.092;15.804;2024-03-02T10:41:23;98388.91;;;14.72;78.29
70027;BME280;57506;50.092;15.804;2024-03-02T10:43:51;98360.38;;;14.69;76.88
70027;BME280;57506;50.092;15.804;2024-03-02T10:46:20;98394.16;;;14.78;74.06
70027;BME280;57506;50.092;15.804;2024-03-02T10:48:46;98374.75;;;14.69;76.10
70027;BME280;57506;50.092;15.804;2024-03-02T10:51:13;98367.25;;;14.88;74.45
70027;BME280;57506;50.092;15.804;2024-03-02T10:53:39;98374.53;;;14.99;75.16
70027;BME280;57506;50.092;15.804;2024-03-02T10:56:07;98385.06;;;15.13;73.76
70027;BME280;57506;50.092;15.804;2024-03-02T10:58:34;98376.56;;;15.21;72.99
70027;BME280;57506;50.092;15.804;2024-03-02T11:01:02;98382.66;;;15.28;72.68
70027;BME280;57506;50.092;15.804;2024-03-02T11:03:35;98386.78;;;15.47;72.93
70027;BME280;57506;50.092;15.804;2024-03-02T11:06:07;98385.25;;;15.51;69.44
70027;BME280;57506;50.092;15.804;2024-03-02T11:08:34;98388.44;;;15.48;71.20
70027;BME280;57506;50.092;15.804;2024-03-02T11:11:07;98361.34;;;15.20;69.58
70027;BME280;57506;50.092;15.804;2024-03-02T11:13:33;98379.13;;;15.44;72.17
70027;BME280;57506;50.092;15.804;2024-03-02T11:16:05;98370.44;;;15.42;71.86
70027;BME280;57506;50.092;15.804;2024-03-02T11:18:32;98364.59;;;15.50;70.71
70027;BME280;57506;50.092;15.804;2024-03-02T11:20:59;98370.50;;;15.47;68.13
70027;BME280;57506;50.092;15.804;2024-03-02T11:23:34;98361.28;;;15.48;69.36
70027;BME280;57506;50.092;15.804;2024-03-02T11:28:44;98373.91;;;15.54;69.25
70027;BME280;57506;50.092;15.804;2024-03-02T11:31:11;98367.28;;;15.33;70.52
70027;BME280;57506;50.092;15.804;2024-03-02T11:33:36;98365.59;;;15.16;72.64
70027;BME280;57506;50.092;15.804;2024-03-02T11:36:02;98361.34;;;15.20;71.77
70027;BME280;57506;50.092;15.804;2024-03-02T11:38:30;98367.84;;;15.19;72.79
70027;BME280;57506;50.092;15.804;2024-03-02T11:40:56;98355.88;;;15.03;72.48
70027;BME280;57506;50.092;15.804;2024-03-02T11:43:22;98353.97;;;15.03;74.70
70027;BME280;57506;50.092;15.804;2024-03-02T11:45:56;98366.31;;;15.11;74.79
70027;BME280;57506;50.092;15.804;2024-03-02T11:48:24;98370.50;;;15.02;74.33
70027;BME280;57506;50.092;15.804;2024-03-02T11:50:50;98367.91;;;15.07;73.67
70027;BME280;57506;50.092;15.804;2024-03-02T11:53:17;98365.59;;;15.16;73.99
70027;BME280;57506;50.092;15.804;2024-03-02T11:55:44;98355.91;;;15.20;73.43
70027;BME280;57506;50.092;15.804;2024-03-02T11:58:12;98364.19;;;15.13;71.05
70027;BME280;57506;50.092;15.804;2024-03-02T12:00:38;98350.69;;;15.01;73.75
70027;BME280;57506;50.092;15.804;2024-03-02T12:03:09;98360.38;;;14.97;76.09
70027;BME280;57506;50.092;15.804;2024-03-02T12:05:36;98369.69;;;15.01;74.67
70027;BME280;57506;50.092;15.804;2024-03-02T12:08:03;98359.00;;;14.83;73.76
70027;BME280;57506;50.092;15.804;2024-03-02T12:10:30;98340.00;;;14.55;72.94
70027;BME280;57506;50.092;15.804;2024-03-02T12:13:04;98368.16;;;14.65;73.53
70027;BME280;57506;50.092;15.804;2024-03-02T12:15:34;98373.97;;;14.46;74.46
70027;BME280;57506;50.092;15.804;2024-03-02T12:18:01;98358.28;;;14.48;75.18
70027;BME280;57506;50.092;15.804;2024-03-02T12:20:30;98361.34;;;14.51;74.94
70027;BME280;57506;50.092;15.804;2024-03-02T12:23:01;98358.75;;;14.56;76.03
70027;BME280;57506;50.092;15.804;2024-03-02T12:25:27;98358.34;;;14.76;72.71
70027;BME280;57506;50.092;15.804;2024-03-02T12:27:58;98351.50;;;14.74;73.15
70027;BME280;57506;50.092;15.804;2024-03-02T12:30:27;98350.16;;;14.59;72.33
70027;BME280;57506;50.092;15.804;2024-03-02T12:32:54;98356.94;;;14.62;73.14
70027;BME280;57506;50.092;15.804;2024-03-02T12:35:20;98345.78;;;14.58;72.22
70027;BME280;57506;50.092;15.804;2024-03-02T12:37:47;98355.25;;;14.84;72.24
70027;BME280;57506;50.092;15.804;2024-03-02T12:40:14;98366.28;;;14.94;74.71
70027;BME280;57506;50.092;15.804;2024-03-02T12:42:42;98364.72;;;14.98;73.29
70027;BME280;57506;50.092;15.804;2024-03-02T12:45:08;98362.38;;;15.02;73.32
70027;BME280;57506;50.092;15.804;2024-03-02T12:47:35;98353.97;;;15.03;73.47
70027;BME280;57506;50.092;15.804;2024-03-02T12:50:01;98350.50;;;14.91;73.83
70027;BME280;57506;50.092;15.804;2024-03-02T12:52:28;98327.16;;;14.90;73.03